sensor_id;sensor_type;location;lat;lon;timestamp;P1;durP1;ratioP1;P2;durP2;ratioP2
64907;SDS011;69061;52.236;5.188;2024-01-15T00:00:51;16.30;;;4.63;;
64907;SDS011;69061;52.236;5.188;2024-01-15T00:03:18;17.20;;;4.60;;
64907;SDS011;69061;52.236;5.188;2024-01-15T00:05:46;18.90;;;5.25;;
64907;SDS011;69061;52.236;5.188;2024-01-15T00:08:12;15.02;;;4.90;;
64907;SDS011;69061;52.236;5.188;2024-01-15T00:10:39;26.08;;;5.22;;
64907;SDS011;69061;52.236;5.188;2024-01-15T00:13:06;13.88;;;4.22;;
64907;SDS011;69061;52.236;5.188;2024-01-15T00:15:32;27.52;;;5.82;;
64907;SDS011;69061;52.236;5.188;2024-01-15T00:17:59;14.70;;;3.88;;
64907;SDS011;69061;52.236;5.188;2024-01-15T00:20:26;13.48;;;4.25;;
64907;SDS011;69061;52.236;5.188;2024-01-15T00:22:54;22.27;;;4.40;;
64907;SDS011;69061;52.236;5.188;2024-01-15T00:25:20;13.55;;;4.53;;
64907;SDS011;69061;52.236;5.188;2024-01-15T00:27:47;18.92;;;4.32;;
64907;SDS011;69061;52.236;5.188;2024-01-15T00:30:13;11.63;;;4.05;;
64907;SDS011;69061;52.236;5.188;2024-01-15T00:32:40;15.55;;;4.43;;
64907;SDS011;69061;52.236;5.188;2024-01-15T00:35:07;13.70;;;3.50;;
64907;SDS011;69061;52.236;5.188;2024-01-15T00:37:34;13.50;;;4.20;;
64907;SDS011;69061;52.236;5.188;2024-01-15T00:40:02;26.88;;;4.65;;
64907;SDS011;69061;52.236;5.188;2024-01-15T00:42:29;19.45;;;4.57;;
64907;SDS011;69061;52.236;5.188;2024-01-15T00:44:56;14.07;;;4.13;;
64907;SDS011;69061;52.236;5.188;2024-01-15T00:47:23;22.13;;;4.70;;
64907;SDS011;69061;52.236;5.188;2024-01-15T00:49:49;15.35;;;3.80;;
64907;SDS011;69061;52.236;5.188;2024-01-15T00:52:16;20.00;;;4.85;;
64907;SDS011;69061;52.236;5.188;2024-01-15T00:54:43;14.70;;;4.35;;
64907;SDS011;69061;52.236;5.188;2024-01-15T00:57:11;13.40;;;4.18;;
64907;SDS011;69061;52.236;5.188;2024-01-15T00:59:37;21.42;;;4.28;;
64907;SDS011;69061;52.236;5.188;2024-01-15T01:02:04;20.33;;;5.22;;
64907;SDS011;69061;52.236;5.188;2024-01-15T01:04:30;14.18;;;4.13;;
64907;SDS011;69061;52.236;5.188;2024-01-15T01:06:57;20.95;;;5.85;;
64907;SDS011;69061;52.236;5.188;2024-01-15T01:09:24;28.20;;;5.75;;
64907;SDS011;69061;52.236;5.188;2024-01-15T01:11:50;17.13;;;4.50;;
64907;SDS011;69061;52.236;5.188;2024-01-15T01:14:18;26.95;;;5.75;;
64907;SDS011;69061;52.236;5.188;2024-01-15T01:16:45;19.95;;;5.85;;
64907;SDS011;69061;52.236;5.188;2024-01-15T01:19:11;14.15;;;5.05;;
64907;SDS011;69061;52.236;5.188;2024-01-15T01:21:38;18.30;;;5.60;;
64907;SDS011;69061;52.236;5.188;2024-01-15T01:24:04;21.33;;;5.68;;
64907;SDS011;69061;52.236;5.188;2024-01-15T01:26:31;22.27;;;4.25;;
64907;SDS011;69061;52.236;5.188;2024-01-15T01:28:58;15.95;;;4.43;;
64907;SDS011;69061;52.236;5.188;2024-01-15T01:31:26;14.10;;;4.38;;
64907;SDS011;69061;52.236;5.188;2024-01-15T01:33:52;12.10;;;4.40;;
64907;SDS011;69061;52.236;5.188;2024-01-15T01:36:19;15.70;;;4.13;;
64907;SDS011;69061;52.236;5.188;2024-01-15T01:38:46;18.35;;;4.25;;
64907;SDS011;69061;52.236;5.188;2024-01-15T01:41:12;13.15;;;3.45;;
64907;SDS011;69061;52.236;5.188;2024-01-15T01:43:39;21.13;;;4.72;;
64907;SDS011;69061;52.236;5.188;2024-01-15T01:46:05;19.25;;;3.85;;
64907;SDS011;69061;52.236;5.188;2024-01-15T01:48:32;14.98;;;4.63;;
64907;SDS011;69061;52.236;5.188;2024-01-15T01:51:00;22.52;;;3.92;;
64907;SDS011;69061;52.236;5.188;2024-01-15T01:53:29;11.07;;;4.30;;
64907;SDS011;69061;52.236;5.188;2024-01-15T01:55:56;22.80;;;5.10;;
64907;SDS011;69061;52.236;5.188;2024-01-15T01:58:23;17.58;;;3.92;;
64907;SDS011;69061;52.236;5.188;2024-01-15T02:00:50;25.13;;;5.05;;
64907;SDS011;69061;52.236;5.188;2024-01-15T02:03:17;20.10;;;3.90;;
64907;SDS011;69061;52.236;5.188;2024-01-15T02:05:45;17.73;;;4.35;;
64907;SDS011;69061;52.236;5.188;2024-01-15T02:08:14;17.67;;;3.88;;
64907;SDS011;69061;52.236;5.188;2024-01-15T02:10:41;19.95;;;4.38;;
64907;SDS011;69061;52.236;5.188;2024-01-15T02:13:08;16.27;;;4.32;;
64907;SDS011;69061;52.236;5.188;2024-01-15T02:15:35;13.48;;;2.88;;
64907;SDS011;69061;52.236;5.188;2024-01-15T02:18:02;8.68;;;2.80;;
64907;SDS011;69061;52.236;5.188;2024-01-15T02:20:31;5.72;;;2.50;;
64907;SDS011;69061;52.236;5.188;2024-01-15T02:23:07;7.82;;;3.13;;
64907;SDS011;69061;52.236;5.188;2024-01-15T02:25:36;11.52;;;3.97;;
64907;SDS011;69061;52.236;5.188;2024-01-15T02:28:04;4.95;;;2.53;;
64907;SDS011;69061;52.236;5.188;2024-01-15T02:30:31;8.90;;;2.80;;
64907;SDS011;69061;52.236;5.188;2024-01-15T02:32:58;7.93;;;2.90;;
64907;SDS011;69061;52.236;5.188;2024-01-15T02:35:25;11.73;;;3.08;;
64907;SDS011;69061;52.236;5.188;2024-01-15T02:37:51;8.88;;;2.80;;
64907;SDS011;69061;52.236;5.188;2024-01-15T02:40:19;12.85;;;3.05;;
64907;SDS011;69061;52.236;5.188;2024-01-15T02:42:46;5.85;;;2.88;;
64907;SDS011;69061;52.236;5.188;2024-01-15T02:45:12;11.73;;;3.40;;
64907;SDS011;69061;52.236;5.188;2024-01-15T02:47:39;10.45;;;2.70;;
64907;SDS011;69061;52.236;5.188;2024-01-15T02:50:06;11.00;;;3.95;;
64907;SDS011;69061;52.236;5.188;2024-01-15T02:52:33;10.48;;;2.92;;
64907;SDS011;69061;52.236;5.188;2024-01-15T02:55:00;8.15;;;3.10;;
64907;SDS011;69061;52.236;5.188;2024-01-15T02:57:27;6.05;;;3.10;;
64907;SDS011;69061;52.236;5.188;2024-01-15T02:59:54;21.08;;;3.95;;
64907;SDS011;69061;52.236;5.188;2024-01-15T03:02:21;11.32;;;3.35;;
64907;SDS011;69061;52.236;5.188;2024-01-15T03:04:48;6.38;;;3.10;;
64907;SDS011;69061;52.236;5.188;2024-01-15T03:07:14;13.95;;;3.60;;
64907;SDS011;69061;52.236;5.188;2024-01-15T03:09:42;16.83;;;3.10;;
64907;SDS011;69061;52.236;5.188;2024-01-15T03:12:08;8.35;;;3.88;;
64907;SDS011;69061;52.236;5.188;2024-01-15T03:14:37;17.58;;;4.10;;
64907;SDS011;69061;52.236;5.188;2024-01-15T03:17:04;13.10;;;4.00;;
64907;SDS011;69061;52.236;5.188;2024-01-15T03:19:31;10.95;;;3.67;;
64907;SDS011;69061;52.236;5.188;2024-01-15T03:22:00;8.02;;;3.35;;
64907;SDS011;69061;52.236;5.188;2024-01-15T03:24:28;14.77;;;4.30;;
64907;SDS011;69061;52.236;5.188;2024-01-15T03:26:55;9.10;;;4.13;;
64907;SDS011;69061;52.236;5.188;2024-01-15T03:29:21;14.23;;;3.72;;
64907;SDS011;69061;52.236;5.188;2024-01-15T03:31:49;12.57;;;3.13;;
64907;SDS011;69061;52.236;5.188;2024-01-15T03:34:16;10.65;;;2.90;;
64907;SDS011;69061;52.236;5.188;2024-01-15T03:36:42;12.68;;;2.88;;
64907;SDS011;69061;52.236;5.188;2024-01-15T03:39:09;14.40;;;4.20;;
64907;SDS011;69061;52.236;5.188;2024-01-15T03:41:36;9.98;;;3.10;;
64907;SDS011;69061;52.236;5.188;2024-01-15T03:44:02;19.40;;;3.97;;
64907;SDS011;69061;52.236;5.188;2024-01-15T03:46:29;8.80;;;2.85;;
64907;SDS011;69061;52.236;5.188;2024-01-15T03:48:57;9.88;;;2.97;;
64907;SDS011;69061;52.236;5.188;2024-01-15T03:51:24;11.73;;;3.58;;
64907;SDS011;69061;52.236;5.188;2024-01-15T03:53:51;8.55;;;2.67;;
64907;SDS011;69061;52.236;5.188;2024-01-15T03:56:17;7.50;;;2.53;;
64907;SDS011;69061;52.236;5.188;2024-01-15T03:58:44;14.32;;;3.67;;
64907;SDS011;69061;52.236;5.188;2024-01-15T04:01:10;11.68;;;3.70;;
64907;SDS011;69061;52.236;5.188;2024-01-15T04:03:37;9.82;;;3.25;;
64907;SDS011;69061;52.236;5.188;2024-01-15T04:06:06;10.23;;;3.38;;
64907;SDS011;69061;52.236;5.188;2024-01-15T04:08:32;14.07;;;4.10;;
64907;SDS011;69061;52.236;5.188;2024-01-15T04:10:59;10.82;;;2.85;;
64907;SDS011;69061;52.236;5.188;2024-01-15T04:13:26;12.38;;;3.88;;
64907;SDS011;69061;52.236;5.188;2024-01-15T04:15:54;12.32;;;3.55;;
64907;SDS011;69061;52.236;5.188;2024-01-15T04:18:20;6.82;;;2.65;;
64907;SDS011;69061;52.236;5.188;2024-01-15T04:20:47;15.93;;;4.97;;
64907;SDS011;69061;52.236;5.188;2024-01-15T04:23:15;14.48;;;4.50;;
64907;SDS011;69061;52.236;5.188;2024-01-15T04:25:42;13.60;;;3.40;;
64907;SDS011;69061;52.236;5.188;2024-01-15T04:28:08;14.13;;;3.47;;
64907;SDS011;69061;52.236;5.188;2024-01-15T04:30:35;7.63;;;3.22;;
64907;SDS011;69061;52.236;5.188;2024-01-15T04:33:02;7.07;;;2.70;;
64907;SDS011;69061;52.236;5.188;2024-01-15T04:35:29;6.47;;;2.53;;
64907;SDS011;69061;52.236;5.188;2024-01-15T04:37:56;10.45;;;2.67;;
64907;SDS011;69061;52.236;5.188;2024-01-15T04:40:24;14.65;;;3.05;;
64907;SDS011;69061;52.236;5.188;2024-01-15T04:42:52;12.13;;;2.97;;
64907;SDS011;69061;52.236;5.188;2024-01-15T04:45:19;7.15;;;2.88;;
64907;SDS011;69061;52.236;5.188;2024-01-15T04:47:47;11.05;;;3.80;;
64907;SDS011;69061;52.236;5.188;2024-01-15T04:50:14;11.60;;;2.95;;
64907;SDS011;69061;52.236;5.188;2024-01-15T04:52:40;17.33;;;3.90;;
64907;SDS011;69061;52.236;5.188;2024-01-15T04:55:07;12.43;;;3.58;;
64907;SDS011;69061;52.236;5.188;2024-01-15T04:57:35;15.23;;;3.17;;
64907;SDS011;69061;52.236;5.188;2024-01-15T05:00:02;16.90;;;4.70;;
64907;SDS011;69061;52.236;5.188;2024-01-15T05:02:30;12.80;;;3.45;;
64907;SDS011;69061;52.236;5.188;2024-01-15T05:04:56;9.45;;;2.78;;
64907;SDS011;69061;52.236;5.188;2024-01-15T05:07:23;15.88;;;3.00;;
64907;SDS011;69061;52.236;5.188;2024-01-15T05:09:49;13.77;;;3.85;;
64907;SDS011;69061;52.236;5.188;2024-01-15T05:12:16;12.02;;;5.20;;
64907;SDS011;69061;52.236;5.188;2024-01-15T05:14:44;18.25;;;9.00;;
64907;SDS011;69061;52.236;5.188;2024-01-15T05:17:11;10.82;;;6.15;;
64907;SDS011;69061;52.236;5.188;2024-01-15T05:19:37;12.05;;;4.53;;
64907;SDS011;69061;52.236;5.188;2024-01-15T05:22:05;9.23;;;4.30;;
64907;SDS011;69061;52.236;5.188;2024-01-15T05:24:32;8.98;;;3.95;;
64907;SDS011;69061;52.236;5.188;2024-01-15T05:26:58;11.27;;;3.72;;
64907;SDS011;69061;52.236;5.188;2024-01-15T05:29:26;17.52;;;3.63;;
64907;SDS011;69061;52.236;5.188;2024-01-15T05:31:54;11.98;;;3.95;;
64907;SDS011;69061;52.236;5.188;2024-01-15T05:34:21;12.18;;;3.05;;
64907;SDS011;69061;52.236;5.188;2024-01-15T05:36:47;10.88;;;3.30;;
64907;SDS011;69061;52.236;5.188;2024-01-15T05:39:14;18.05;;;3.88;;
64907;SDS011;69061;52.236;5.188;2024-01-15T05:41:41;17.20;;;4.15;;
64907;SDS011;69061;52.236;5.188;2024-01-15T05:44:08;15.70;;;3.10;;
64907;SDS011;69061;52.236;5.188;2024-01-15T05:46:35;11.27;;;3.30;;
64907;SDS011;69061;52.236;5.188;2024-01-15T05:49:03;10.90;;;3.50;;
64907;SDS011;69061;52.236;5.188;2024-01-15T05:51:29;11.57;;;3.42;;
64907;SDS011;69061;52.236;5.188;2024-01-15T05:53:56;9.63;;;3.92;;
64907;SDS011;69061;52.236;5.188;2024-01-15T05:56:22;10.68;;;3.50;;
64907;SDS011;69061;52.236;5.188;2024-01-15T05:58:50;14.07;;;5.10;;
64907;SDS011;69061;52.236;5.188;2024-01-15T06:01:17;9.02;;;3.17;;
64907;SDS011;69061;52.236;5.188;2024-01-15T06:03:44;11.60;;;3.70;;
64907;SDS011;69061;52.236;5.188;2024-01-15T06:06:12;11.80;;;3.80;;
64907;SDS011;69061;52.236;5.188;2024-01-15T06:08:39;20.10;;;4.05;;
64907;SDS011;69061;52.236;5.188;2024-01-15T06:11:07;7.75;;;3.85;;
64907;SDS011;69061;52.236;5.188;2024-01-15T06:13:33;10.25;;;3.80;;
64907;SDS011;69061;52.236;5.188;2024-01-15T06:16:00;12.20;;;3.92;;
64907;SDS011;69061;52.236;5.188;2024-01-15T06:18:27;14.02;;;5.65;;
64907;SDS011;69061;52.236;5.188;2024-01-15T06:20:54;11.68;;;4.20;;
64907;SDS011;69061;52.236;5.188;2024-01-15T06:23:22;13.32;;;3.72;;
64907;SDS011;69061;52.236;5.188;2024-01-15T06:25:49;15.23;;;4.85;;
64907;SDS011;69061;52.236;5.188;2024-01-15T06:28:16;13.82;;;4.25;;
64907;SDS011;69061;52.236;5.188;2024-01-15T06:30:43;6.88;;;3.40;;
64907;SDS011;69061;52.236;5.188;2024-01-15T06:33:10;10.35;;;3.28;;
64907;SDS011;69061;52.236;5.188;2024-01-15T06:35:37;14.10;;;3.40;;
64907;SDS011;69061;52.236;5.188;2024-01-15T06:38:03;11.27;;;3.70;;
64907;SDS011;69061;52.236;5.188;2024-01-15T06:40:32;11.45;;;4.18;;
64907;SDS011;69061;52.236;5.188;2024-01-15T06:42:59;13.30;;;4.03;;
64907;SDS011;69061;52.236;5.188;2024-01-15T06:45:26;9.07;;;3.97;;
64907;SDS011;69061;52.236;5.188;2024-01-15T06:47:52;9.93;;;4.30;;
64907;SDS011;69061;52.236;5.188;2024-01-15T06:50:19;13.48;;;4.50;;
64907;SDS011;69061;52.236;5.188;2024-01-15T06:52:46;13.45;;;4.93;;
64907;SDS011;69061;52.236;5.188;2024-01-15T06:55:13;15.38;;;4.30;;
64907;SDS011;69061;52.236;5.188;2024-01-15T06:57:41;15.77;;;5.07;;
64907;SDS011;69061;52.236;5.188;2024-01-15T07:00:08;11.80;;;4.82;;
64907;SDS011;69061;52.236;5.188;2024-01-15T07:02:35;16.58;;;4.55;;
64907;SDS011;69061;52.236;5.188;2024-01-15T07:05:02;10.80;;;3.97;;
64907;SDS011;69061;52.236;5.188;2024-01-15T07:07:30;10.57;;;4.50;;
64907;SDS011;69061;52.236;5.188;2024-01-15T07:09:56;9.90;;;3.70;;
64907;SDS011;69061;52.236;5.188;2024-01-15T07:12:23;8.60;;;3.70;;
64907;SDS011;69061;52.236;5.188;2024-01-15T07:14:51;11.48;;;3.72;;
64907;SDS011;69061;52.236;5.188;2024-01-15T07:17:18;11.23;;;3.78;;
64907;SDS011;69061;52.236;5.188;2024-01-15T07:19:45;12.25;;;5.05;;
64907;SDS011;69061;52.236;5.188;2024-01-15T07:22:12;12.25;;;4.85;;
64907;SDS011;69061;52.236;5.188;2024-01-15T07:24:40;13.75;;;4.80;;
64907;SDS011;69061;52.236;5.188;2024-01-15T07:27:06;13.60;;;6.25;;
64907;SDS011;69061;52.236;5.188;2024-01-15T07:29:34;14.38;;;6.10;;
64907;SDS011;69061;52.236;5.188;2024-01-15T07:32:05;15.82;;;6.32;;
64907;SDS011;69061;52.236;5.188;2024-01-15T07:34:32;20.42;;;6.65;;
64907;SDS011;69061;52.236;5.188;2024-01-15T07:36:59;12.90;;;4.50;;
64907;SDS011;69061;52.236;5.188;2024-01-15T07:39:26;12.15;;;4.32;;
64907;SDS011;69061;52.236;5.188;2024-01-15T07:41:53;7.50;;;3.45;;
64907;SDS011;69061;52.236;5.188;2024-01-15T07:44:21;8.65;;;3.65;;
64907;SDS011;69061;52.236;5.188;2024-01-15T07:46:47;18.70;;;6.72;;
64907;SDS011;69061;52.236;5.188;2024-01-15T07:49:17;19.80;;;7.38;;
64907;SDS011;69061;52.236;5.188;2024-01-15T07:51:44;12.93;;;6.03;;
64907;SDS011;69061;52.236;5.188;2024-01-15T07:54:11;13.73;;;5.30;;
64907;SDS011;69061;52.236;5.188;2024-01-15T07:56:52;10.32;;;4.97;;
64907;SDS011;69061;52.236;5.188;2024-01-15T07:59:20;17.00;;;4.90;;
64907;SDS011;69061;52.236;5.188;2024-01-15T08:01:46;12.05;;;5.57;;
64907;SDS011;69061;52.236;5.188;2024-01-15T08:04:13;9.52;;;4.25;;
64907;SDS011;69061;52.236;5.188;2024-01-15T08:06:41;12.23;;;4.00;;
64907;SDS011;69061;52.236;5.188;2024-01-15T08:09:08;11.95;;;4.60;;
64907;SDS011;69061;52.236;5.188;2024-01-15T08:11:34;18.50;;;5.72;;
64907;SDS011;69061;52.236;5.188;2024-01-15T08:14:01;8.38;;;4.65;;
64907;SDS011;69061;52.236;5.188;2024-01-15T08:16:28;11.05;;;3.97;;
64907;SDS011;69061;52.236;5.188;2024-01-15T08:18:55;11.07;;;3.30;;
64907;SDS011;69061;52.236;5.188;2024-01-15T08:21:21;8.82;;;3.63;;
64907;SDS011;69061;52.236;5.188;2024-01-15T08:23:51;11.32;;;3.95;;
64907;SDS011;69061;52.236;5.188;2024-01-15T08:26:18;13.88;;;4.10;;
64907;SDS011;69061;52.236;5.188;2024-01-15T08:28:44;7.88;;;3.60;;
64907;SDS011;69061;52.236;5.188;2024-01-15T08:31:11;8.60;;;3.42;;
64907;SDS011;69061;52.236;5.188;2024-01-15T08:33:39;8.70;;;3.00;;
64907;SDS011;69061;52.236;5.188;2024-01-15T08:36:05;9.55;;;3.45;;
64907;SDS011;69061;52.236;5.188;2024-01-15T08:38:32;14.77;;;3.90;;
64907;SDS011;69061;52.236;5.188;2024-01-15T08:41:00;12.52;;;3.95;;
64907;SDS011;69061;52.236;5.188;2024-01-15T08:43:27;15.80;;;4.05;;
64907;SDS011;69061;52.236;5.188;2024-01-15T08:45:56;23.92;;;4.85;;
64907;SDS011;69061;52.236;5.188;2024-01-15T08:48:22;11.27;;;4.15;;
64907;SDS011;69061;52.236;5.188;2024-01-15T08:50:52;13.52;;;4.97;;
64907;SDS011;69061;52.236;5.188;2024-01-15T08:53:19;12.13;;;4.45;;
64907;SDS011;69061;52.236;5.188;2024-01-15T08:55:46;10.88;;;4.47;;
64907;SDS011;69061;52.236;5.188;2024-01-15T08:58:15;12.23;;;5.45;;
64907;SDS011;69061;52.236;5.188;2024-01-15T09:00:42;11.77;;;4.70;;
64907;SDS011;69061;52.236;5.188;2024-01-15T09:03:09;11.43;;;4.82;;
64907;SDS011;69061;52.236;5.188;2024-01-15T09:05:36;27.67;;;5.43;;
64907;SDS011;69061;52.236;5.188;2024-01-15T09:08:02;11.88;;;5.05;;
64907;SDS011;69061;52.236;5.188;2024-01-15T09:10:29;14.52;;;4.70;;
64907;SDS011;69061;52.236;5.188;2024-01-15T09:12:56;18.88;;;4.47;;
64907;SDS011;69061;52.236;5.188;2024-01-15T09:15:24;11.30;;;4.00;;
64907;SDS011;69061;52.236;5.188;2024-01-15T09:17:50;11.48;;;4.30;;
64907;SDS011;69061;52.236;5.188;2024-01-15T09:20:17;10.75;;;3.67;;
64907;SDS011;69061;52.236;5.188;2024-01-15T09:22:44;14.98;;;4.05;;
64907;SDS011;69061;52.236;5.188;2024-01-15T09:25:11;10.38;;;3.28;;
64907;SDS011;69061;52.236;5.188;2024-01-15T09:27:37;27.45;;;9.13;;
64907;SDS011;69061;52.236;5.188;2024-01-15T09:30:04;17.23;;;5.38;;
64907;SDS011;69061;52.236;5.188;2024-01-15T09:32:35;9.77;;;3.60;;
64907;SDS011;69061;52.236;5.188;2024-01-15T09:35:01;11.55;;;4.05;;
64907;SDS011;69061;52.236;5.188;2024-01-15T09:37:28;16.33;;;4.45;;
64907;SDS011;69061;52.236;5.188;2024-01-15T09:39:55;15.52;;;5.43;;
64907;SDS011;69061;52.236;5.188;2024-01-15T09:42:22;12.60;;;3.90;;
64907;SDS011;69061;52.236;5.188;2024-01-15T09:44:51;13.10;;;4.18;;
64907;SDS011;69061;52.236;5.188;2024-01-15T09:47:17;10.02;;;3.90;;
64907;SDS011;69061;52.236;5.188;2024-01-15T09:49:46;14.93;;;4.65;;
64907;SDS011;69061;52.236;5.188;2024-01-15T09:52:13;16.35;;;5.35;;
64907;SDS011;69061;52.236;5.188;2024-01-15T09:54:43;16.55;;;5.32;;
64907;SDS011;69061;52.236;5.188;2024-01-15T09:57:10;13.45;;;4.38;;
64907;SDS011;69061;52.236;5.188;2024-01-15T09:59:37;21.85;;;5.28;;
64907;SDS011;69061;52.236;5.188;2024-01-15T10:02:04;16.65;;;5.30;;
64907;SDS011;69061;52.236;5.188;2024-01-15T10:04:33;17.27;;;5.55;;
64907;SDS011;69061;52.236;5.188;2024-01-15T10:07:01;15.98;;;3.70;;
64907;SDS011;69061;52.236;5.188;2024-01-15T10:09:29;16.83;;;3.70;;
64907;SDS011;69061;52.236;5.188;2024-01-15T10:11:58;22.13;;;4.00;;
64907;SDS011;69061;52.236;5.188;2024-01-15T10:14:25;19.73;;;4.95;;
64907;SDS011;69061;52.236;5.188;2024-01-15T10:16:52;14.43;;;3.30;;
64907;SDS011;69061;52.236;5.188;2024-01-15T10:19:20;15.75;;;3.75;;
64907;SDS011;69061;52.236;5.188;2024-01-15T10:21:47;14.18;;;4.13;;
64907;SDS011;69061;52.236;5.188;2024-01-15T10:24:15;13.23;;;3.70;;
64907;SDS011;69061;52.236;5.188;2024-01-15T10:26:43;13.95;;;4.40;;
64907;SDS011;69061;52.236;5.188;2024-01-15T10:29:10;13.73;;;4.07;;
64907;SDS011;69061;52.236;5.188;2024-01-15T10:31:36;12.13;;;4.40;;
64907;SDS011;69061;52.236;5.188;2024-01-15T10:34:13;13.02;;;3.95;;
64907;SDS011;69061;52.236;5.188;2024-01-15T10:36:41;16.80;;;3.75;;
64907;SDS011;69061;52.236;5.188;2024-01-15T10:39:07;22.55;;;5.40;;
64907;SDS011;69061;52.236;5.188;2024-01-15T10:41:36;12.73;;;4.75;;
64907;SDS011;69061;52.236;5.188;2024-01-15T10:44:02;14.38;;;4.65;;
64907;SDS011;69061;52.236;5.188;2024-01-15T10:46:29;14.90;;;5.22;;
64907;SDS011;69061;52.236;5.188;2024-01-15T10:48:57;18.30;;;4.18;;
64907;SDS011;69061;52.236;5.188;2024-01-15T10:51:24;21.77;;;5.05;;
64907;SDS011;69061;52.236;5.188;2024-01-15T10:53:51;12.75;;;4.03;;
64907;SDS011;69061;52.236;5.188;2024-01-15T10:56:19;7.30;;;3.20;;
64907;SDS011;69061;52.236;5.188;2024-01-15T10:58:49;6.15;;;2.85;;
64907;SDS011;69061;52.236;5.188;2024-01-15T11:01:18;9.60;;;3.10;;
64907;SDS011;69061;52.236;5.188;2024-01-15T11:03:45;9.27;;;2.60;;
64907;SDS011;69061;52.236;5.188;2024-01-15T11:06:16;5.00;;;2.50;;
64907;SDS011;69061;52.236;5.188;2024-01-15T11:08:44;7.82;;;2.53;;
64907;SDS011;69061;52.236;5.188;2024-01-15T11:11:12;7.47;;;2.50;;
64907;SDS011;69061;52.236;5.188;2024-01-15T11:13:41;5.50;;;2.30;;
64907;SDS011;69061;52.236;5.188;2024-01-15T11:16:11;4.68;;;2.55;;
64907;SDS011;69061;52.236;5.188;2024-01-15T11:18:39;7.22;;;2.10;;
64907;SDS011;69061;52.236;5.188;2024-01-15T11:21:20;13.77;;;2.67;;
64907;SDS011;69061;52.236;5.188;2024-01-15T11:23:51;5.97;;;2.33;;
64907;SDS011;69061;52.236;5.188;2024-01-15T11:26:34;9.07;;;3.55;;
64907;SDS011;69061;52.236;5.188;2024-01-15T11:29:03;7.03;;;2.50;;
64907;SDS011;69061;52.236;5.188;2024-01-15T11:37:16;5.28;;;2.42;;
64907;SDS011;69061;52.236;5.188;2024-01-15T11:39:43;7.95;;;2.72;;
64907;SDS011;69061;52.236;5.188;2024-01-15T11:42:11;7.00;;;2.67;;
64907;SDS011;69061;52.236;5.188;2024-01-15T11:44:39;5.22;;;2.60;;
64907;SDS011;69061;52.236;5.188;2024-01-15T11:47:10;9.45;;;3.08;;
64907;SDS011;69061;52.236;5.188;2024-01-15T11:49:48;11.95;;;3.53;;
64907;SDS011;69061;52.236;5.188;2024-01-15T11:52:34;13.20;;;4.43;;
64907;SDS011;69061;52.236;5.188;2024-01-15T11:55:05;11.35;;;3.83;;
64907;SDS011;69061;52.236;5.188;2024-01-15T11:57:40;11.60;;;3.20;;
64907;SDS011;69061;52.236;5.188;2024-01-15T12:00:09;7.32;;;2.92;;
64907;SDS011;69061;52.236;5.188;2024-01-15T12:02:38;7.97;;;3.03;;
64907;SDS011;69061;52.236;5.188;2024-01-15T12:05:06;7.65;;;3.05;;
64907;SDS011;69061;52.236;5.188;2024-01-15T12:07:33;14.75;;;3.60;;
64907;SDS011;69061;52.236;5.188;2024-01-15T12:10:00;8.80;;;3.58;;
64907;SDS011;69061;52.236;5.188;2024-01-15T12:12:28;12.10;;;2.92;;
64907;SDS011;69061;52.236;5.188;2024-01-15T12:15:04;8.95;;;3.25;;
64907;SDS011;69061;52.236;5.188;2024-01-15T12:17:31;6.93;;;2.60;;
64907;SDS011;69061;52.236;5.188;2024-01-15T12:19:59;8.35;;;2.90;;
64907;SDS011;69061;52.236;5.188;2024-01-15T12:22:26;9.15;;;3.03;;
64907;SDS011;69061;52.236;5.188;2024-01-15T12:24:53;12.23;;;2.90;;
64907;SDS011;69061;52.236;5.188;2024-01-15T12:27:20;13.13;;;4.40;;
64907;SDS011;69061;52.236;5.188;2024-01-15T12:29:47;9.73;;;3.10;;
64907;SDS011;69061;52.236;5.188;2024-01-15T12:32:13;10.30;;;3.63;;
64907;SDS011;69061;52.236;5.188;2024-01-15T12:34:39;9.35;;;3.38;;
64907;SDS011;69061;52.236;5.188;2024-01-15T12:37:07;6.75;;;2.17;;
64907;SDS011;69061;52.236;5.188;2024-01-15T12:39:35;9.27;;;2.78;;
64907;SDS011;69061;52.236;5.188;2024-01-15T12:42:02;10.45;;;2.83;;
64907;SDS011;69061;52.236;5.188;2024-01-15T12:44:30;10.88;;;3.58;;
64907;SDS011;69061;52.236;5.188;2024-01-15T12:46:57;7.35;;;3.42;;
64907;SDS011;69061;52.236;5.188;2024-01-15T12:49:24;7.00;;;2.70;;
64907;SDS011;69061;52.236;5.188;2024-01-15T12:51:53;9.20;;;2.95;;
64907;SDS011;69061;52.236;5.188;2024-01-15T12:54:22;9.60;;;3.10;;
64907;SDS011;69061;52.236;5.188;2024-01-15T12:56:49;12.35;;;3.65;;
64907;SDS011;69061;52.236;5.188;2024-01-15T12:59:16;12.27;;;3.80;;
64907;SDS011;69061;52.236;5.188;2024-01-15T13:01:43;7.90;;;2.80;;
64907;SDS011;69061;52.236;5.188;2024-01-15T13:04:10;16.58;;;4.18;;
64907;SDS011;69061;52.236;5.188;2024-01-15T13:06:37;9.18;;;3.33;;
64907;SDS011;69061;52.236;5.188;2024-01-15T13:09:03;9.77;;;2.65;;
64907;SDS011;69061;52.236;5.188;2024-01-15T13:11:31;12.70;;;4.38;;
64907;SDS011;69061;52.236;5.188;2024-01-15T13:13:58;8.25;;;2.90;;
64907;SDS011;69061;52.236;5.188;2024-01-15T13:16:25;8.52;;;3.40;;
64907;SDS011;69061;52.236;5.188;2024-01-15T13:18:54;9.82;;;3.25;;
64907;SDS011;69061;52.236;5.188;2024-01-15T13:21:21;12.10;;;3.85;;
64907;SDS011;69061;52.236;5.188;2024-01-15T13:23:47;9.60;;;3.25;;
64907;SDS011;69061;52.236;5.188;2024-01-15T13:26:16;14.55;;;4.43;;
64907;SDS011;69061;52.236;5.188;2024-01-15T13:28:45;13.57;;;3.92;;
64907;SDS011;69061;52.236;5.188;2024-01-15T13:31:12;12.13;;;3.97;;
64907;SDS011;69061;52.236;5.188;2024-01-15T13:33:39;14.68;;;4.40;;
64907;SDS011;69061;52.236;5.188;2024-01-15T13:36:06;11.65;;;3.38;;
64907;SDS011;69061;52.236;5.188;2024-01-15T13:38:35;12.35;;;3.28;;
64907;SDS011;69061;52.236;5.188;2024-01-15T13:41:03;11.40;;;3.03;;
64907;SDS011;69061;52.236;5.188;2024-01-15T13:43:30;8.90;;;3.55;;
64907;SDS011;69061;52.236;5.188;2024-01-15T13:45:59;12.35;;;3.20;;
64907;SDS011;69061;52.236;5.188;2024-01-15T13:48:29;9.05;;;3.72;;
64907;SDS011;69061;52.236;5.188;2024-01-15T13:50:56;8.07;;;2.80;;
64907;SDS011;69061;52.236;5.188;2024-01-15T13:53:24;13.45;;;4.13;;
64907;SDS011;69061;52.236;5.188;2024-01-15T13:55:50;6.32;;;2.90;;
64907;SDS011;69061;52.236;5.188;2024-01-15T13:58:17;20.23;;;3.95;;
64907;SDS011;69061;52.236;5.188;2024-01-15T14:00:44;12.57;;;3.50;;
64907;SDS011;69061;52.236;5.188;2024-01-15T14:03:12;17.23;;;3.80;;
64907;SDS011;69061;52.236;5.188;2024-01-15T14:05:38;10.65;;;3.67;;
64907;SDS011;69061;52.236;5.188;2024-01-15T14:08:05;11.15;;;4.70;;
64907;SDS011;69061;52.236;5.188;2024-01-15T14:10:32;10.15;;;3.70;;
64907;SDS011;69061;52.236;5.188;2024-01-15T14:12:59;11.48;;;3.47;;
64907;SDS011;69061;52.236;5.188;2024-01-15T14:15:26;17.48;;;4.22;;
64907;SDS011;69061;52.236;5.188;2024-01-15T14:17:53;12.98;;;3.65;;
64907;SDS011;69061;52.236;5.188;2024-01-15T14:20:21;15.30;;;4.38;;
64907;SDS011;69061;52.236;5.188;2024-01-15T14:22:47;21.98;;;4.95;;
64907;SDS011;69061;52.236;5.188;2024-01-15T14:25:14;17.48;;;4.13;;
64907;SDS011;69061;52.236;5.188;2024-01-15T14:27:40;26.27;;;6.38;;
64907;SDS011;69061;52.236;5.188;2024-01-15T14:30:08;33.03;;;7.78;;
64907;SDS011;69061;52.236;5.188;2024-01-15T14:32:35;35.75;;;6.35;;
64907;SDS011;69061;52.236;5.188;2024-01-15T14:35:01;17.40;;;4.78;;
64907;SDS011;69061;52.236;5.188;2024-01-15T14:37:31;19.13;;;4.85;;
64907;SDS011;69061;52.236;5.188;2024-01-15T14:39:58;17.25;;;4.32;;
64907;SDS011;69061;52.236;5.188;2024-01-15T14:42:24;10.27;;;4.53;;
64907;SDS011;69061;52.236;5.188;2024-01-15T14:44:51;19.60;;;4.00;;